Air Navigation Services of Czech Republic
Airport: LKKV Updated:  23.06.2024 08:30:43  UTC
 METAR LKKV 23.06. 08:30 ...
METAR LKKV 230830Z VRB04KT 9999 SCT023 19/12 Q1019=
 TAF LKKV 23.06. 05:00 ...
TAF LKKV 230500Z 2306/2406 34004KT CAVOK      BECMG 2306/2308 9999 SCT030      TEMPO 2308/2318 02014KT 7000 SHRA SCT025TCU      BECMG 2318/2320 06004KT CAVOK=